sensor_id;sensor_type;location;lat;lon;timestamp;temperature;humidity
54642;DHT22;40536;53.194;5.728;2023-04-23T00:01:57;5.80;99.90
54642;DHT22;40536;53.194;5.728;2023-04-23T00:04:24;6.10;99.90
54642;DHT22;40536;53.194;5.728;2023-04-23T00:06:51;5.90;99.90
54642;DHT22;40536;53.194;5.728;2023-04-23T00:09:17;6.00;99.90
54642;DHT22;40536;53.194;5.728;2023-04-23T00:11:43;6.00;99.90
54642;DHT22;40536;53.194;5.728;2023-04-23T00:14:09;6.10;99.90
54642;DHT22;40536;53.194;5.728;2023-04-23T00:16:36;6.10;99.90
54642;DHT22;40536;53.194;5.728;2023-04-23T00:19:02;6.10;99.90
54642;DHT22;40536;53.194;5.728;2023-04-23T00:21:27;6.10;99.90
54642;DHT22;40536;53.194;5.728;2023-04-23T00:23:53;6.20;99.90
54642;DHT22;40536;53.194;5.728;2023-04-23T00:26:19;6.20;99.90
54642;DHT22;40536;53.194;5.728;2023-04-23T00:28:45;6.40;99.90
54642;DHT22;40536;53.194;5.728;2023-04-23T00:31:10;6.00;99.90
54642;DHT22;40536;53.194;5.728;2023-04-23T00:33:36;5.90;99.90
54642;DHT22;40536;53.194;5.728;2023-04-23T00:36:03;5.90;99.90
54642;DHT22;40536;53.194;5.728;2023-04-23T00:38:29;5.80;99.90
54642;DHT22;40536;53.194;5.728;2023-04-23T00:40:54;5.80;99.90
54642;DHT22;40536;53.194;5.728;2023-04-23T00:43:20;5.80;99.90
54642;DHT22;40536;53.194;5.728;2023-04-23T00:45:47;6.80;99.90
54642;DHT22;40536;53.194;5.728;2023-04-23T00:48:12;5.80;99.90
54642;DHT22;40536;53.194;5.728;2023-04-23T00:50:38;6.70;99.90
54642;DHT22;40536;53.194;5.728;2023-04-23T00:53:04;5.60;99.90
54642;DHT22;40536;53.194;5.728;2023-04-23T00:55:30;6.40;99.90
54642;DHT22;40536;53.194;5.728;2023-04-23T00:57:57;5.50;99.90
54642;DHT22;40536;53.194;5.728;2023-04-23T01:00:22;5.50;99.90
54642;DHT22;40536;53.194;5.728;2023-04-23T01:02:48;5.50;99.90
54642;DHT22;40536;53.194;5.728;2023-04-23T01:05:15;6.50;99.90
54642;DHT22;40536;53.194;5.728;2023-04-23T01:07:43;5.60;99.90
54642;DHT22;40536;53.194;5.728;2023-04-23T01:10:09;5.60;99.90
54642;DHT22;40536;53.194;5.728;2023-04-23T01:12:35;5.50;99.90
54642;DHT22;40536;53.194;5.728;2023-04-23T01:15:02;6.20;99.90
54642;DHT22;40536;53.194;5.728;2023-04-23T01:17:28;5.60;99.90
54642;DHT22;40536;53.194;5.728;2023-04-23T01:19:55;6.70;99.90
54642;DHT22;40536;53.194;5.728;2023-04-23T01:22:21;5.60;99.90
54642;DHT22;40536;53.194;5.728;2023-04-23T01:24:47;6.40;99.90
54642;DHT22;40536;53.194;5.728;2023-04-23T01:27:13;5.60;99.90
54642;DHT22;40536;53.194;5.728;2023-04-23T01:29:39;5.60;99.90
54642;DHT22;40536;53.194;5.728;2023-04-23T01:32:06;6.30;99.90
54642;DHT22;40536;53.194;5.728;2023-04-23T01:34:32;5.50;99.90
54642;DHT22;40536;53.194;5.728;2023-04-23T01:36:59;5.50;99.90
54642;DHT22;40536;53.194;5.728;2023-04-23T01:39:25;5.90;99.90
54642;DHT22;40536;53.194;5.728;2023-04-23T01:41:52;5.50;99.90
54642;DHT22;40536;53.194;5.728;2023-04-23T01:44:18;5.50;99.90
54642;DHT22;40536;53.194;5.728;2023-04-23T01:46:43;5.40;99.90
54642;DHT22;40536;53.194;5.728;2023-04-23T01:49:10;6.40;99.90
54642;DHT22;40536;53.194;5.728;2023-04-23T01:51:36;5.60;99.90
54642;DHT22;40536;53.194;5.728;2023-04-23T01:54:02;5.40;99.90
54642;DHT22;40536;53.194;5.728;2023-04-23T01:56:27;5.50;99.90
54642;DHT22;40536;53.194;5.728;2023-04-23T01:58:55;5.50;99.90
54642;DHT22;40536;53.194;5.728;2023-04-23T02:01:21;6.20;99.90
54642;DHT22;40536;53.194;5.728;2023-04-23T02:03:48;6.30;99.90
54642;DHT22;40536;53.194;5.728;2023-04-23T02:06:14;6.10;99.90
54642;DHT22;40536;53.194;5.728;2023-04-23T02:08:40;5.50;99.90
54642;DHT22;40536;53.194;5.728;2023-04-23T02:11:06;5.50;99.90
54642;DHT22;40536;53.194;5.728;2023-04-23T02:13:32;6.40;99.90
54642;DHT22;40536;53.194;5.728;2023-04-23T02:15:58;5.70;99.90
54642;DHT22;40536;53.194;5.728;2023-04-23T02:18:24;5.60;99.90
54642;DHT22;40536;53.194;5.728;2023-04-23T02:20:49;6.50;99.90
54642;DHT22;40536;53.194;5.728;2023-04-23T02:23:15;6.60;99.90
54642;DHT22;40536;53.194;5.728;2023-04-23T02:25:41;5.40;99.90
54642;DHT22;40536;53.194;5.728;2023-04-23T02:28:07;6.10;99.90
54642;DHT22;40536;53.194;5.728;2023-04-23T02:30:34;5.30;99.90
54642;DHT22;40536;53.194;5.728;2023-04-23T02:33:01;5.30;99.90
54642;DHT22;40536;53.194;5.728;2023-04-23T02:35:28;5.40;99.90
54642;DHT22;40536;53.194;5.728;2023-04-23T02:37:54;6.80;99.90
54642;DHT22;40536;53.194;5.728;2023-04-23T02:40:20;6.10;99.90
54642;DHT22;40536;53.194;5.728;2023-04-23T02:42:47;5.70;99.90
54642;DHT22;40536;53.194;5.728;2023-04-23T02:45:13;5.80;99.90
54642;DHT22;40536;53.194;5.728;2023-04-23T02:47:39;5.80;99.90
54642;DHT22;40536;53.194;5.728;2023-04-23T02:50:05;5.80;99.90
54642;DHT22;40536;53.194;5.728;2023-04-23T02:52:32;5.90;99.90
54642;DHT22;40536;53.194;5.728;2023-04-23T02:54:59;5.90;99.90
54642;DHT22;40536;53.194;5.728;2023-04-23T02:57:26;6.00;99.90
54642;DHT22;40536;53.194;5.728;2023-04-23T02:59:52;6.10;99.90
54642;DHT22;40536;53.194;5.728;2023-04-23T03:02:18;6.10;99.90
54642;DHT22;40536;53.194;5.728;2023-04-23T03:04:44;6.20;99.90
54642;DHT22;40536;53.194;5.728;2023-04-23T03:07:10;6.20;99.90
54642;DHT22;40536;53.194;5.728;2023-04-23T03:09:38;6.30;99.90
54642;DHT22;40536;53.194;5.728;2023-04-23T03:12:04;6.60;99.90
54642;DHT22;40536;53.194;5.728;2023-04-23T03:14:29;6.40;99.90
54642;DHT22;40536;53.194;5.728;2023-04-23T03:16:55;7.00;99.90
54642;DHT22;40536;53.194;5.728;2023-04-23T03:19:21;7.10;99.90
54642;DHT22;40536;53.194;5.728;2023-04-23T03:21:46;7.30;99.90
54642;DHT22;40536;53.194;5.728;2023-04-23T03:24:12;6.80;99.90
54642;DHT22;40536;53.194;5.728;2023-04-23T03:26:39;7.90;99.90
54642;DHT22;40536;53.194;5.728;2023-04-23T03:29:05;7.70;99.90
54642;DHT22;40536;53.194;5.728;2023-04-23T03:31:31;6.80;99.90
54642;DHT22;40536;53.194;5.728;2023-04-23T03:34:00;6.70;99.90
54642;DHT22;40536;53.194;5.728;2023-04-23T03:36:26;6.80;99.90
54642;DHT22;40536;53.194;5.728;2023-04-23T03:38:55;6.70;99.90
54642;DHT22;40536;53.194;5.728;2023-04-23T03:41:20;6.80;99.90
54642;DHT22;40536;53.194;5.728;2023-04-23T03:43:46;7.20;99.90
54642;DHT22;40536;53.194;5.728;2023-04-23T03:46:11;6.90;99.90
54642;DHT22;40536;53.194;5.728;2023-04-23T03:48:37;7.40;99.90
54642;DHT22;40536;53.194;5.728;2023-04-23T03:51:03;6.90;99.90
54642;DHT22;40536;53.194;5.728;2023-04-23T03:53:28;7.30;99.90
54642;DHT22;40536;53.194;5.728;2023-04-23T03:55:54;7.30;99.90
54642;DHT22;40536;53.194;5.728;2023-04-23T03:58:20;7.10;99.90
54642;DHT22;40536;53.194;5.728;2023-04-23T04:00:45;7.80;99.90
54642;DHT22;40536;53.194;5.728;2023-04-23T04:03:11;7.70;99.90
54642;DHT22;40536;53.194;5.728;2023-04-23T04:05:37;7.40;99.90
54642;DHT22;40536;53.194;5.728;2023-04-23T04:08:02;7.20;99.90
54642;DHT22;40536;53.194;5.728;2023-04-23T04:10:29;7.50;99.90
54642;DHT22;40536;53.194;5.728;2023-04-23T04:12:55;7.50;99.90
54642;DHT22;40536;53.194;5.728;2023-04-23T04:15:21;7.30;99.90
54642;DHT22;40536;53.194;5.728;2023-04-23T04:17:47;7.50;99.90
54642;DHT22;40536;53.194;5.728;2023-04-23T04:20:12;7.60;99.90
54642;DHT22;40536;53.194;5.728;2023-04-23T04:22:38;8.00;99.90
54642;DHT22;40536;53.194;5.728;2023-04-23T04:25:05;7.30;99.90
54642;DHT22;40536;53.194;5.728;2023-04-23T04:27:31;7.30;99.90
54642;DHT22;40536;53.194;5.728;2023-04-23T04:30:00;8.10;99.90
54642;DHT22;40536;53.194;5.728;2023-04-23T04:32:26;7.30;99.90
54642;DHT22;40536;53.194;5.728;2023-04-23T04:34:57;7.30;99.90
54642;DHT22;40536;53.194;5.728;2023-04-23T04:37:23;7.30;99.90
54642;DHT22;40536;53.194;5.728;2023-04-23T04:39:49;7.30;99.90
54642;DHT22;40536;53.194;5.728;2023-04-23T04:42:15;7.40;99.90
54642;DHT22;40536;53.194;5.728;2023-04-23T04:44:42;7.40;99.90
54642;DHT22;40536;53.194;5.728;2023-04-23T04:47:08;7.70;99.90
54642;DHT22;40536;53.194;5.728;2023-04-23T04:49:34;7.50;99.90
54642;DHT22;40536;53.194;5.728;2023-04-23T04:52:00;7.60;99.90
54642;DHT22;40536;53.194;5.728;2023-04-23T04:54:26;7.60;99.90
54642;DHT22;40536;53.194;5.728;2023-04-23T04:56:51;7.60;99.90
54642;DHT22;40536;53.194;5.728;2023-04-23T04:59:17;7.80;99.90
54642;DHT22;40536;53.194;5.728;2023-04-23T05:01:43;7.70;99.90
54642;DHT22;40536;53.194;5.728;2023-04-23T05:04:09;7.80;99.90
54642;DHT22;40536;53.194;5.728;2023-04-23T05:06:34;7.80;99.90
54642;DHT22;40536;53.194;5.728;2023-04-23T05:09:00;7.90;99.90
54642;DHT22;40536;53.194;5.728;2023-04-23T05:11:26;7.90;99.90
54642;DHT22;40536;53.194;5.728;2023-04-23T05:13:52;8.00;99.90
54642;DHT22;40536;53.194;5.728;2023-04-23T05:16:17;8.00;99.90
54642;DHT22;40536;53.194;5.728;2023-04-23T05:18:43;8.00;99.90
54642;DHT22;40536;53.194;5.728;2023-04-23T05:21:09;8.10;99.90
54642;DHT22;40536;53.194;5.728;2023-04-23T05:23:35;8.10;99.90
54642;DHT22;40536;53.194;5.728;2023-04-23T05:26:01;8.20;99.90
54642;DHT22;40536;53.194;5.728;2023-04-23T05:28:28;8.20;99.90
54642;DHT22;40536;53.194;5.728;2023-04-23T05:30:55;8.20;99.90
54642;DHT22;40536;53.194;5.728;2023-04-23T05:33:21;8.50;99.90
54642;DHT22;40536;53.194;5.728;2023-04-23T05:35:47;8.40;99.90
54642;DHT22;40536;53.194;5.728;2023-04-23T05:38:16;8.40;99.90
54642;DHT22;40536;53.194;5.728;2023-04-23T05:40:42;8.50;99.90
54642;DHT22;40536;53.194;5.728;2023-04-23T05:43:08;8.50;99.90
54642;DHT22;40536;53.194;5.728;2023-04-23T05:45:33;8.50;99.90
54642;DHT22;40536;53.194;5.728;2023-04-23T05:47:59;8.60;99.90
54642;DHT22;40536;53.194;5.728;2023-04-23T05:50:25;8.60;99.90
54642;DHT22;40536;53.194;5.728;2023-04-23T05:52:50;8.70;99.90
54642;DHT22;40536;53.194;5.728;2023-04-23T05:55:16;8.70;99.90
54642;DHT22;40536;53.194;5.728;2023-04-23T05:57:43;9.10;99.90
54642;DHT22;40536;53.194;5.728;2023-04-23T06:00:09;9.50;99.90
54642;DHT22;40536;53.194;5.728;2023-04-23T06:02:36;9.40;99.90
54642;DHT22;40536;53.194;5.728;2023-04-23T06:05:03;10.60;99.90
54642;DHT22;40536;53.194;5.728;2023-04-23T06:07:29;10.20;99.90
54642;DHT22;40536;53.194;5.728;2023-04-23T06:09:54;10.30;99.90
54642;DHT22;40536;53.194;5.728;2023-04-23T06:12:20;10.80;99.90
54642;DHT22;40536;53.194;5.728;2023-04-23T06:14:46;10.20;99.90
54642;DHT22;40536;53.194;5.728;2023-04-23T06:17:12;10.20;99.90
54642;DHT22;40536;53.194;5.728;2023-04-23T06:19:37;10.10;99.90
54642;DHT22;40536;53.194;5.728;2023-04-23T06:22:05;10.70;99.90
54642;DHT22;40536;53.194;5.728;2023-04-23T06:24:30;10.00;99.90
54642;DHT22;40536;53.194;5.728;2023-04-23T06:26:56;10.00;99.90
54642;DHT22;40536;53.194;5.728;2023-04-23T06:29:22;10.00;99.90
54642;DHT22;40536;53.194;5.728;2023-04-23T06:31:48;10.00;99.90
54642;DHT22;40536;53.194;5.728;2023-04-23T06:34:17;10.00;99.90
54642;DHT22;40536;53.194;5.728;2023-04-23T06:36:43;10.00;99.90
54642;DHT22;40536;53.194;5.728;2023-04-23T06:39:08;10.00;99.90
54642;DHT22;40536;53.194;5.728;2023-04-23T06:41:35;10.00;99.90
54642;DHT22;40536;53.194;5.728;2023-04-23T06:44:00;10.10;99.90
54642;DHT22;40536;53.194;5.728;2023-04-23T06:46:26;10.00;99.90
54642;DHT22;40536;53.194;5.728;2023-04-23T06:48:52;9.90;99.90
54642;DHT22;40536;53.194;5.728;2023-04-23T06:51:17;10.50;99.90
54642;DHT22;40536;53.194;5.728;2023-04-23T06:53:43;10.20;99.90
54642;DHT22;40536;53.194;5.728;2023-04-23T06:56:09;10.10;99.90
54642;DHT22;40536;53.194;5.728;2023-04-23T06:58:34;10.20;99.90
54642;DHT22;40536;53.194;5.728;2023-04-23T07:01:01;11.10;99.90
54642;DHT22;40536;53.194;5.728;2023-04-23T07:03:30;11.00;99.90
54642;DHT22;40536;53.194;5.728;2023-04-23T07:05:58;11.30;99.90
54642;DHT22;40536;53.194;5.728;2023-04-23T07:08:24;11.40;99.90
54642;DHT22;40536;53.194;5.728;2023-04-23T07:10:50;11.40;99.90
54642;DHT22;40536;53.194;5.728;2023-04-23T07:13:16;11.60;99.90
54642;DHT22;40536;53.194;5.728;2023-04-23T07:15:42;12.30;99.90
54642;DHT22;40536;53.194;5.728;2023-04-23T07:18:08;12.90;99.90
54642;DHT22;40536;53.194;5.728;2023-04-23T07:20:34;13.50;99.90
54642;DHT22;40536;53.194;5.728;2023-04-23T07:23:00;13.90;99.90
54642;DHT22;40536;53.194;5.728;2023-04-23T07:25:25;14.30;99.90
54642;DHT22;40536;53.194;5.728;2023-04-23T07:27:52;14.50;99.90
54642;DHT22;40536;53.194;5.728;2023-04-23T07:30:19;14.30;99.90
54642;DHT22;40536;53.194;5.728;2023-04-23T07:32:45;14.00;99.90
54642;DHT22;40536;53.194;5.728;2023-04-23T07:35:11;14.00;99.90
54642;DHT22;40536;53.194;5.728;2023-04-23T07:37:37;14.10;99.90
54642;DHT22;40536;53.194;5.728;2023-04-23T07:40:03;14.70;99.90
54642;DHT22;40536;53.194;5.728;2023-04-23T07:42:30;15.30;99.90
54642;DHT22;40536;53.194;5.728;2023-04-23T07:44:56;15.90;99.90
54642;DHT22;40536;53.194;5.728;2023-04-23T07:47:22;16.40;99.90
54642;DHT22;40536;53.194;5.728;2023-04-23T07:49:47;16.80;99.90
54642;DHT22;40536;53.194;5.728;2023-04-23T07:52:13;17.10;99.90
54642;DHT22;40536;53.194;5.728;2023-04-23T07:54:40;17.20;99.90
54642;DHT22;40536;53.194;5.728;2023-04-23T07:57:05;17.30;99.90
54642;DHT22;40536;53.194;5.728;2023-04-23T07:59:31;17.30;99.90
54642;DHT22;40536;53.194;5.728;2023-04-23T08:01:57;17.70;99.90
54642;DHT22;40536;53.194;5.728;2023-04-23T08:04:22;18.20;99.90
54642;DHT22;40536;53.194;5.728;2023-04-23T08:06:48;18.80;99.90
54642;DHT22;40536;53.194;5.728;2023-04-23T08:09:14;19.20;99.90
54642;DHT22;40536;53.194;5.728;2023-04-23T08:11:40;19.20;99.90
54642;DHT22;40536;53.194;5.728;2023-04-23T08:14:06;19.50;99.90
54642;DHT22;40536;53.194;5.728;2023-04-23T08:16:32;19.80;99.90
54642;DHT22;40536;53.194;5.728;2023-04-23T08:18:57;19.70;99.90
54642;DHT22;40536;53.194;5.728;2023-04-23T08:21:23;19.50;99.90
54642;DHT22;40536;53.194;5.728;2023-04-23T08:23:51;18.60;99.90
54642;DHT22;40536;53.194;5.728;2023-04-23T08:26:17;18.60;99.90
54642;DHT22;40536;53.194;5.728;2023-04-23T08:28:42;18.80;99.90
54642;DHT22;40536;53.194;5.728;2023-04-23T08:31:08;19.40;99.90
54642;DHT22;40536;53.194;5.728;2023-04-23T08:33:34;19.40;99.90
54642;DHT22;40536;53.194;5.728;2023-04-23T08:35:59;19.60;99.90
54642;DHT22;40536;53.194;5.728;2023-04-23T08:38:25;19.90;99.90
54642;DHT22;40536;53.194;5.728;2023-04-23T08:40:55;19.60;99.90
54642;DHT22;40536;53.194;5.728;2023-04-23T08:43:28;19.40;99.90
54642;DHT22;40536;53.194;5.728;2023-04-23T08:45:57;18.70;99.90
54642;DHT22;40536;53.194;5.728;2023-04-23T08:48:26;18.10;99.90
54642;DHT22;40536;53.194;5.728;2023-04-23T08:50:52;18.30;99.90
54642;DHT22;40536;53.194;5.728;2023-04-23T08:53:18;18.50;99.90
54642;DHT22;40536;53.194;5.728;2023-04-23T08:55:47;18.50;99.90
54642;DHT22;40536;53.194;5.728;2023-04-23T08:58:14;18.80;99.90
54642;DHT22;40536;53.194;5.728;2023-04-23T09:00:40;18.60;99.90
54642;DHT22;40536;53.194;5.728;2023-04-23T09:03:06;18.20;99.90
54642;DHT22;40536;53.194;5.728;2023-04-23T09:05:31;18.10;99.90
54642;DHT22;40536;53.194;5.728;2023-04-23T09:07:57;17.90;99.90
54642;DHT22;40536;53.194;5.728;2023-04-23T09:10:24;17.70;99.90
54642;DHT22;40536;53.194;5.728;2023-04-23T09:12:50;18.20;99.90
54642;DHT22;40536;53.194;5.728;2023-04-23T09:15:16;18.00;99.90
54642;DHT22;40536;53.194;5.728;2023-04-23T09:17:44;17.90;99.90
54642;DHT22;40536;53.194;5.728;2023-04-23T09:20:11;18.00;99.90
54642;DHT22;40536;53.194;5.728;2023-04-23T09:22:41;17.90;99.90
54642;DHT22;40536;53.194;5.728;2023-04-23T09:25:08;17.60;99.90
54642;DHT22;40536;53.194;5.728;2023-04-23T09:27:34;17.70;99.90
54642;DHT22;40536;53.194;5.728;2023-04-23T09:30:05;18.00;99.90
54642;DHT22;40536;53.194;5.728;2023-04-23T09:32:39;18.30;99.90
54642;DHT22;40536;53.194;5.728;2023-04-23T09:35:07;18.60;99.90
54642;DHT22;40536;53.194;5.728;2023-04-23T09:37:33;18.50;99.90
54642;DHT22;40536;53.194;5.728;2023-04-23T09:40:01;18.10;99.90
54642;DHT22;40536;53.194;5.728;2023-04-23T09:42:29;17.90;99.90
54642;DHT22;40536;53.194;5.728;2023-04-23T09:45:07;18.10;99.90
54642;DHT22;40536;53.194;5.728;2023-04-23T09:47:53;18.50;99.90
54642;DHT22;40536;53.194;5.728;2023-04-23T09:50:34;19.20;99.90
54642;DHT22;40536;53.194;5.728;2023-04-23T09:53:01;20.10;99.90
54642;DHT22;40536;53.194;5.728;2023-04-23T09:55:35;20.70;99.90
54642;DHT22;40536;53.194;5.728;2023-04-23T09:58:14;21.70;99.90
54642;DHT22;40536;53.194;5.728;2023-04-23T10:00:40;22.70;99.90
54642;DHT22;40536;53.194;5.728;2023-04-23T10:03:06;22.50;99.90
54642;DHT22;40536;53.194;5.728;2023-04-23T10:05:43;21.90;99.90
54642;DHT22;40536;53.194;5.728;2023-04-23T10:08:08;21.50;99.90
54642;DHT22;40536;53.194;5.728;2023-04-23T10:10:34;20.60;99.90
54642;DHT22;40536;53.194;5.728;2023-04-23T10:13:01;20.30;99.90
54642;DHT22;40536;53.194;5.728;2023-04-23T10:15:27;19.90;99.90
54642;DHT22;40536;53.194;5.728;2023-04-23T10:17:53;19.80;99.90
54642;DHT22;40536;53.194;5.728;2023-04-23T10:20:21;20.00;99.90
54642;DHT22;40536;53.194;5.728;2023-04-23T10:22:47;19.90;99.90
54642;DHT22;40536;53.194;5.728;2023-04-23T10:25:14;19.90;99.90
54642;DHT22;40536;53.194;5.728;2023-04-23T10:27:44;20.40;99.90
54642;DHT22;40536;53.194;5.728;2023-04-23T10:30:13;20.50;99.90
54642;DHT22;40536;53.194;5.728;2023-04-23T10:32:41;21.20;99.90
54642;DHT22;40536;53.194;5.728;2023-04-23T10:35:08;21.50;99.90
54642;DHT22;40536;53.194;5.728;2023-04-23T10:37:38;21.80;99.90
54642;DHT22;40536;53.194;5.728;2023-04-23T10:40:13;22.10;99.90
54642;DHT22;40536;53.194;5.728;2023-04-23T10:42:40;22.00;99.90
54642;DHT22;40536;53.194;5.728;2023-04-23T10:45:16;21.80;99.90
54642;DHT22;40536;53.194;5.728;2023-04-23T10:47:43;22.30;99.90
54642;DHT22;40536;53.194;5.728;2023-04-23T10:50:25;21.90;99.90
54642;DHT22;40536;53.194;5.728;2023-04-23T10:52:51;22.10;99.90
54642;DHT22;40536;53.194;5.728;2023-04-23T10:55:31;22.00;99.90
54642;DHT22;40536;53.194;5.728;2023-04-23T10:58:05;21.90;99.90
54642;DHT22;40536;53.194;5.728;2023-04-23T11:00:44;21.90;99.90
54642;DHT22;40536;53.194;5.728;2023-04-23T11:06:03;22.00;99.90
54642;DHT22;40536;53.194;5.728;2023-04-23T11:08:29;21.90;99.90
54642;DHT22;40536;53.194;5.728;2023-04-23T11:10:59;22.70;99.90
54642;DHT22;40536;53.194;5.728;2023-04-23T11:13:26;22.40;99.90
54642;DHT22;40536;53.194;5.728;2023-04-23T11:19:00;21.80;99.90
54642;DHT22;40536;53.194;5.728;2023-04-23T11:21:58;22.00;99.90
54642;DHT22;40536;53.194;5.728;2023-04-23T11:24:35;22.20;99.90
54642;DHT22;40536;53.194;5.728;2023-04-23T11:27:11;22.40;99.90
54642;DHT22;40536;53.194;5.728;2023-04-23T11:29:38;22.40;99.90
54642;DHT22;40536;53.194;5.728;2023-04-23T11:32:06;22.10;99.90
54642;DHT22;40536;53.194;5.728;2023-04-23T11:34:39;21.20;99.90
54642;DHT22;40536;53.194;5.728;2023-04-23T11:37:04;21.70;99.90
54642;DHT22;40536;53.194;5.728;2023-04-23T11:39:31;21.50;99.90
54642;DHT22;40536;53.194;5.728;2023-04-23T11:41:57;20.70;99.90
54642;DHT22;40536;53.194;5.728;2023-04-23T11:44:27;20.20;99.90
54642;DHT22;40536;53.194;5.728;2023-04-23T11:46:53;19.70;99.90
54642;DHT22;40536;53.194;5.728;2023-04-23T11:49:19;19.50;99.90
54642;DHT22;40536;53.194;5.728;2023-04-23T11:51:46;19.40;99.90
54642;DHT22;40536;53.194;5.728;2023-04-23T11:54:12;19.50;99.90
54642;DHT22;40536;53.194;5.728;2023-04-23T11:56:39;19.40;99.90
54642;DHT22;40536;53.194;5.728;2023-04-23T11:59:05;19.40;99.90
54642;DHT22;40536;53.194;5.728;2023-04-23T12:01:46;19.70;99.90
54642;DHT22;40536;53.194;5.728;2023-04-23T12:04:18;20.30;99.90
54642;DHT22;40536;53.194;5.728;2023-04-23T12:06:46;20.50;99.90
54642;DHT22;40536;53.194;5.728;2023-04-23T12:09:13;20.10;99.90
54642;DHT22;40536;53.194;5.728;2023-04-23T12:11:42;20.00;99.90
54642;DHT22;40536;53.194;5.728;2023-04-23T12:14:10;19.80;99.90
54642;DHT22;40536;53.194;5.728;2023-04-23T12:16:44;19.60;99.90
54642;DHT22;40536;53.194;5.728;2023-04-23T12:19:20;19.50;99.90
54642;DHT22;40536;53.194;5.728;2023-04-23T12:21:53;19.80;99.90
54642;DHT22;40536;53.194;5.728;2023-04-23T12:24:23;20.40;99.90
54642;DHT22;40536;53.194;5.728;2023-04-23T12:26:57;20.70;99.90
54642;DHT22;40536;53.194;5.728;2023-04-23T12:29:25;21.00;99.90
54642;DHT22;40536;53.194;5.728;2023-04-23T12:31:52;21.00;99.90
54642;DHT22;40536;53.194;5.728;2023-04-23T12:34:21;21.00;99.90
54642;DHT22;40536;53.194;5.728;2023-04-23T12:36:52;20.50;99.90
54642;DHT22;40536;53.194;5.728;2023-04-23T12:39:28;20.60;99.90
54642;DHT22;40536;53.194;5.728;2023-04-23T12:42:03;20.60;99.90
54642;DHT22;40536;53.194;5.728;2023-04-23T12:44:38;20.80;99.90
54642;DHT22;40536;53.194;5.728;2023-04-23T12:47:08;20.80;99.90
54642;DHT22;40536;53.194;5.728;2023-04-23T12:49:36;20.50;99.90
54642;DHT22;40536;53.194;5.728;2023-04-23T12:52:03;20.40;99.90
54642;DHT22;40536;53.194;5.728;2023-04-23T12:54:36;20.50;99.90
54642;DHT22;40536;53.194;5.728;2023-04-23T12:57:03;20.30;99.90
54642;DHT22;40536;53.194;5.728;2023-04-23T12:59:30;20.30;99.90
54642;DHT22;40536;53.194;5.728;2023-04-23T13:01:56;20.40;99.90
54642;DHT22;40536;53.194;5.728;2023-04-23T13:04:32;20.50;99.90
54642;DHT22;40536;53.194;5.728;2023-04-23T13:06:58;20.50;99.90
54642;DHT22;40536;53.194;5.728;2023-04-23T13:09:24;20.50;99.90
54642;DHT22;40536;53.194;5.728;2023-04-23T13:11:52;20.50;99.90
54642;DHT22;40536;53.194;5.728;2023-04-23T13:14:18;20.50;99.90
54642;DHT22;40536;53.194;5.728;2023-04-23T13:16:44;20.60;99.90
54642;DHT22;40536;53.194;5.728;2023-04-23T13:19:10;20.60;99.90
54642;DHT22;40536;53.194;5.728;2023-04-23T13:21:37;20.70;99.90
54642;DHT22;40536;53.194;5.728;2023-04-23T13:24:03;20.70;99.90
54642;DHT22;40536;53.194;5.728;2023-04-23T13:26:29;20.50;99.90
54642;DHT22;40536;53.194;5.728;2023-04-23T13:28:57;20.40;99.90
54642;DHT22;40536;53.194;5.728;2023-04-23T13:31:23;20.30;99.90
54642;DHT22;40536;53.194;5.728;2023-04-23T13:33:50;20.30;99.90
54642;DHT22;40536;53.194;5.728;2023-04-23T13:36:16;20.30;99.90
54642;DHT22;40536;53.194;5.728;2023-04-23T13:38:44;20.40;99.90
54642;DHT22;40536;53.194;5.728;2023-04-23T13:41:10;20.40;99.90
54642;DHT22;40536;53.194;5.728;2023-04-23T13:43:35;20.50;99.90
54642;DHT22;40536;53.194;5.728;2023-04-23T13:46:01;20.70;99.90
54642;DHT22;40536;53.194;5.728;2023-04-23T13:48:27;21.10;99.90
54642;DHT22;40536;53.194;5.728;2023-04-23T13:51:00;21.10;99.90
54642;DHT22;40536;53.194;5.728;2023-04-23T13:53:27;20.80;99.90
54642;DHT22;40536;53.194;5.728;2023-04-23T13:55:54;20.80;99.90
54642;DHT22;40536;53.194;5.728;2023-04-23T13:58:20;20.50;99.90
54642;DHT22;40536;53.194;5.728;2023-04-23T14:00:46;20.50;99.90
54642;DHT22;40536;53.194;5.728;2023-04-23T14:03:12;20.60;99.90
54642;DHT22;40536;53.194;5.728;2023-04-23T14:05:38;20.60;99.90
54642;DHT22;40536;53.194;5.728;2023-04-23T14:08:03;20.60;99.90
54642;DHT22;40536;53.194;5.728;2023-04-23T14:10:29;20.80;99.90
54642;DHT22;40536;53.194;5.728;2023-04-23T14:12:55;20.80;99.90
54642;DHT22;40536;53.194;5.728;2023-04-23T14:15:22;20.90;99.90
54642;DHT22;40536;53.194;5.728;2023-04-23T14:17:47;21.00;99.90
54642;DHT22;40536;53.194;5.728;2023-04-23T14:20:14;21.10;99.90
54642;DHT22;40536;53.194;5.728;2023-04-23T14:22:40;21.20;99.90
54642;DHT22;40536;53.194;5.728;2023-04-23T14:25:14;21.20;99.90
54642;DHT22;40536;53.194;5.728;2023-04-23T14:27:44;21.10;99.90
54642;DHT22;40536;53.194;5.728;2023-04-23T14:30:17;20.90;99.90
54642;DHT22;40536;53.194;5.728;2023-04-23T14:32:43;20.60;99.90
54642;DHT22;40536;53.194;5.728;2023-04-23T14:35:15;20.50;99.90
54642;DHT22;40536;53.194;5.728;2023-04-23T14:37:41;20.20;99.90
54642;DHT22;40536;53.194;5.728;2023-04-23T14:40:12;20.00;99.90
54642;DHT22;40536;53.194;5.728;2023-04-23T14:42:40;20.00;99.90
54642;DHT22;40536;53.194;5.728;2023-04-23T14:45:06;19.90;99.90
54642;DHT22;40536;53.194;5.728;2023-04-23T14:47:32;19.90;99.90
54642;DHT22;40536;53.194;5.728;2023-04-23T14:49:58;19.90;99.90
54642;DHT22;40536;53.194;5.728;2023-04-23T14:52:25;19.80;99.90
54642;DHT22;40536;53.194;5.728;2023-04-23T14:54:51;19.90;99.90
54642;DHT22;40536;53.194;5.728;2023-04-23T14:57:20;20.10;99.90
54642;DHT22;40536;53.194;5.728;2023-04-23T14:59:46;20.20;99.90
54642;DHT22;40536;53.194;5.728;2023-04-23T15:02:11;20.40;99.90
54642;DHT22;40536;53.194;5.728;2023-04-23T15:04:37;20.40;99.90
54642;DHT22;40536;53.194;5.728;2023-04-23T15:07:03;20.30;99.90
54642;DHT22;40536;53.194;5.728;2023-04-23T15:09:28;20.20;99.90
54642;DHT22;40536;53.194;5.728;2023-04-23T15:11:54;20.00;99.90
54642;DHT22;40536;53.194;5.728;2023-04-23T15:14:40;19.90;99.90
54642;DHT22;40536;53.194;5.728;2023-04-23T15:17:08;19.70;99.90
54642;DHT22;40536;53.194;5.728;2023-04-23T15:19:33;19.50;99.90
54642;DHT22;40536;53.194;5.728;2023-04-23T15:21:59;19.50;99.90
54642;DHT22;40536;53.194;5.728;2023-04-23T15:24:24;19.60;99.90
54642;DHT22;40536;53.194;5.728;2023-04-23T15:26:50;19.70;99.90
54642;DHT22;40536;53.194;5.728;2023-04-23T15:29:17;19.80;99.90
54642;DHT22;40536;53.194;5.728;2023-04-23T15:31:43;19.90;99.90
54642;DHT22;40536;53.194;5.728;2023-04-23T15:34:09;20.00;99.90
54642;DHT22;40536;53.194;5.728;2023-04-23T15:36:37;20.00;99.90
54642;DHT22;40536;53.194;5.728;2023-04-23T15:39:05;20.00;99.90
54642;DHT22;40536;53.194;5.728;2023-04-23T15:41:31;19.90;99.90
54642;DHT22;40536;53.194;5.728;2023-04-23T15:43:57;19.90;99.90